createdAt,value
2018-06-08T00:01:48.620Z,0.00
2018-06-08T00:02:48.687Z,0.00
2018-06-08T00:04:41.693Z,0.00
2018-06-08T00:05:41.753Z,0.00
2018-06-08T00:07:34.756Z,0.00
2018-06-08T00:08:34.826Z,0.00
2018-06-08T00:10:27.836Z,0.00
2018-06-08T00:11:27.903Z,0.00
2018-06-08T00:13:20.897Z,0.00
2018-06-08T00:14:20.967Z,0.00
2018-06-08T00:16:13.971Z,0.00
2018-06-08T00:17:14.032Z,0.00
2018-06-08T00:19:07.040Z,0.00
2018-06-08T00:20:07.102Z,0.00
2018-06-08T00:22:00.104Z,0.00
2018-06-08T00:23:00.171Z,0.00
2018-06-08T00:24:53.170Z,0.00
2018-06-08T00:25:53.232Z,0.00
2018-06-08T00:27:46.235Z,0.00
2018-06-08T00:28:46.302Z,0.00
2018-06-08T00:30:39.311Z,0.00
2018-06-08T00:31:39.373Z,0.00
2018-06-08T00:33:32.370Z,0.00
2018-06-08T00:34:32.439Z,0.00
2018-06-08T00:36:25.441Z,0.00
2018-06-08T00:37:25.504Z,0.00
2018-06-08T00:39:18.519Z,0.00
2018-06-08T00:40:18.579Z,0.00
2018-06-08T00:42:11.576Z,0.00
2018-06-08T00:43:11.643Z,0.00
2018-06-08T00:45:04.648Z,0.00
2018-06-08T00:46:04.708Z,0.00
2018-06-08T00:47:57.708Z,0.00
2018-06-08T00:48:57.798Z,0.00
2018-06-08T00:50:50.801Z,0.00
2018-06-08T00:51:50.862Z,0.00
2018-06-08T00:53:43.865Z,0.00
2018-06-08T00:54:43.931Z,0.00
2018-06-08T00:56:36.936Z,0.00
2018-06-08T00:57:36.995Z,0.00
2018-06-08T00:59:30.008Z,0.00
2018-06-08T01:00:30.076Z,0.00
2018-06-08T01:02:25.581Z,0.00
2018-06-08T01:03:23.135Z,0.00
2018-06-08T01:05:16.139Z,0.00
2018-06-08T01:06:16.199Z,0.00
2018-06-08T01:08:09.197Z,0.00
2018-06-08T01:09:09.262Z,0.00
2018-06-08T01:11:02.777Z,0.00
2018-06-08T01:12:02.836Z,0.00
2018-06-08T01:13:55.834Z,0.00
2018-06-08T01:14:55.900Z,0.00
2018-06-08T01:16:48.909Z,0.00
2018-06-08T01:17:48.965Z,0.00
2018-06-08T01:19:41.968Z,0.00
2018-06-08T01:20:42.030Z,0.00
2018-06-08T01:22:35.036Z,0.00
2018-06-08T01:23:35.093Z,0.00
2018-06-08T01:25:28.096Z,0.00
2018-06-08T01:26:28.159Z,0.00
2018-06-08T01:28:21.168Z,0.00
2018-06-08T01:29:21.222Z,0.00
2018-06-08T01:31:14.225Z,0.00
2018-06-08T01:32:14.287Z,0.00
2018-06-08T01:34:07.336Z,0.00
2018-06-08T01:35:07.351Z,0.00
2018-06-08T01:37:00.355Z,0.00
2018-06-08T01:38:00.417Z,0.00
2018-06-08T01:39:53.426Z,0.00
2018-06-08T01:40:53.487Z,0.00
2018-06-08T01:42:46.483Z,0.00
2018-06-08T01:43:46.547Z,0.00
2018-06-08T01:45:39.553Z,0.00
2018-06-08T01:46:39.612Z,0.00
2018-06-08T01:48:32.612Z,0.00
2018-06-08T01:49:32.676Z,0.00
2018-06-08T01:51:25.683Z,0.00
2018-06-08T01:52:25.741Z,0.00
2018-06-08T01:54:18.745Z,0.00
2018-06-08T01:55:18.808Z,0.00
2018-06-08T01:57:11.810Z,0.00
2018-06-08T01:58:11.872Z,0.00
2018-06-08T02:00:04.916Z,0.00
2018-06-08T02:01:04.976Z,0.00
2018-06-08T02:02:57.955Z,0.00
2018-06-08T02:03:58.023Z,0.00
2018-06-08T02:05:51.027Z,0.00
2018-06-08T02:06:51.091Z,0.00
2018-06-08T02:08:44.090Z,0.00
2018-06-08T02:09:44.157Z,0.00
2018-06-08T02:11:37.670Z,0.00
2018-06-08T02:12:37.731Z,0.00
2018-06-08T02:14:30.723Z,0.00
2018-06-08T02:15:30.793Z,0.00
2018-06-08T02:17:23.795Z,0.00
2018-06-08T02:18:23.855Z,0.00
2018-06-08T02:20:16.850Z,0.00
2018-06-08T02:21:16.917Z,0.00
2018-06-08T02:23:09.926Z,0.00
2018-06-08T02:24:09.985Z,0.00
2018-06-08T02:26:02.987Z,0.00
2018-06-08T02:27:03.047Z,0.00
2018-06-08T02:28:56.051Z,0.00
2018-06-08T02:29:56.118Z,0.00
2018-06-08T02:31:49.122Z,0.00
2018-06-08T02:32:49.180Z,0.00
2018-06-08T02:34:42.176Z,0.00
2018-06-08T02:35:42.246Z,0.00
2018-06-08T02:37:35.252Z,0.00
2018-06-08T02:38:35.312Z,0.00
2018-06-08T02:40:28.315Z,0.00
2018-06-08T02:41:28.376Z,0.00
2018-06-08T02:43:21.380Z,0.00
2018-06-08T02:44:21.442Z,0.00
2018-06-08T02:46:14.448Z,0.00
2018-06-08T02:47:14.503Z,0.00
2018-06-08T02:49:07.500Z,0.00
2018-06-08T02:50:07.567Z,0.00
2018-06-08T02:52:00.574Z,0.00
2018-06-08T02:53:00.636Z,0.00
2018-06-08T02:54:53.629Z,0.00
2018-06-08T02:55:53.698Z,0.00
2018-06-08T02:57:46.700Z,0.00
2018-06-08T02:58:46.768Z,0.00
2018-06-08T03:00:39.757Z,0.00
2018-06-08T03:01:39.824Z,0.00
2018-06-08T03:03:32.845Z,0.00
2018-06-08T03:04:32.887Z,0.00
2018-06-08T03:06:25.890Z,0.00
2018-06-08T03:07:25.950Z,0.00
2018-06-08T03:09:18.947Z,0.00
2018-06-08T03:10:19.016Z,0.00
2018-06-08T03:12:12.116Z,5.63
2018-06-08T03:13:12.078Z,5.63
2018-06-08T03:15:05.089Z,5.63
2018-06-08T03:16:05.154Z,5.63
2018-06-08T03:17:58.159Z,5.63
2018-06-08T03:18:58.218Z,5.63
2018-06-08T03:20:51.239Z,5.63
2018-06-08T03:21:51.313Z,5.63
2018-06-08T03:23:44.315Z,5.63
2018-06-08T03:24:44.377Z,5.63
2018-06-08T03:26:37.379Z,5.63
2018-06-08T03:27:37.450Z,5.63
2018-06-08T03:29:30.437Z,11.25
2018-06-08T03:30:30.501Z,11.25
2018-06-08T03:32:23.507Z,11.25
2018-06-08T03:33:23.567Z,11.25
2018-06-08T03:35:16.571Z,11.25
2018-06-08T03:36:16.632Z,11.25
2018-06-08T03:38:09.630Z,11.25
2018-06-08T03:39:09.695Z,11.25
2018-06-08T03:41:02.691Z,16.88
2018-06-08T03:42:02.760Z,16.88
2018-06-08T03:43:55.767Z,16.88
2018-06-08T03:44:55.823Z,22.50
2018-06-08T03:46:48.827Z,22.50
2018-06-08T03:47:48.889Z,28.13
2018-06-08T03:49:41.891Z,39.38
2018-06-08T03:50:41.952Z,39.38
2018-06-08T03:52:34.958Z,45.00
2018-06-08T03:53:35.015Z,45.00
2018-06-08T03:55:28.018Z,50.63
2018-06-08T03:56:28.084Z,50.63
2018-06-08T03:58:21.087Z,50.63
2018-06-08T03:59:21.146Z,50.63
2018-06-08T04:01:14.171Z,56.25
2018-06-08T04:02:14.214Z,56.25
2018-06-08T04:04:07.271Z,61.88
2018-06-08T04:05:07.277Z,61.88
2018-06-08T04:07:00.277Z,67.50
2018-06-08T04:08:00.340Z,67.50
2018-06-08T04:09:53.335Z,73.13
2018-06-08T04:10:53.402Z,78.75
2018-06-08T04:12:46.403Z,84.38
2018-06-08T04:13:46.462Z,84.38
2018-06-08T04:15:39.461Z,90.00
2018-06-08T04:16:39.529Z,90.00
2018-06-08T04:18:32.531Z,90.00
2018-06-08T04:19:32.592Z,95.63
2018-06-08T04:21:25.594Z,95.63
2018-06-08T04:22:25.654Z,95.63
2018-06-08T04:24:18.656Z,101.25
2018-06-08T04:25:18.717Z,101.25
2018-06-08T04:27:11.719Z,101.25
2018-06-08T04:28:11.778Z,106.88
2018-06-08T04:30:04.788Z,112.50
2018-06-08T04:31:04.850Z,112.50
2018-06-08T04:32:57.875Z,118.13
2018-06-08T04:33:57.912Z,123.75
2018-06-08T04:35:50.908Z,129.38
2018-06-08T04:36:50.976Z,129.38
2018-06-08T04:38:43.985Z,140.63
2018-06-08T04:39:44.047Z,140.63
2018-06-08T04:41:37.042Z,140.63
2018-06-08T04:42:37.112Z,135.00
2018-06-08T04:44:30.119Z,135.00
2018-06-08T04:45:30.176Z,140.63
2018-06-08T04:47:23.181Z,146.25
2018-06-08T04:48:23.238Z,146.25
2018-06-08T04:50:16.235Z,140.63
2018-06-08T04:51:16.303Z,140.63
2018-06-08T04:53:09.305Z,157.50
2018-06-08T04:54:09.366Z,163.13
2018-06-08T04:56:02.363Z,180.00
2018-06-08T04:57:02.427Z,185.63
2018-06-08T04:58:55.439Z,213.75
2018-06-08T04:59:55.493Z,225.00
2018-06-08T05:01:48.497Z,225.00
2018-06-08T05:02:48.560Z,225.00
2018-06-08T05:04:41.565Z,202.50
2018-06-08T05:05:41.625Z,185.63
2018-06-08T05:07:34.627Z,157.50
2018-06-08T05:08:34.686Z,157.50
2018-06-08T05:10:27.691Z,157.50
2018-06-08T05:11:27.756Z,157.50
2018-06-08T05:13:20.763Z,163.13
2018-06-08T05:14:20.822Z,168.75
2018-06-08T05:16:13.826Z,168.75
2018-06-08T05:17:13.893Z,168.75
2018-06-08T05:19:06.901Z,174.38
2018-06-08T05:20:06.956Z,185.63
2018-06-08T05:21:59.964Z,208.13
2018-06-08T05:23:00.024Z,219.38
2018-06-08T05:24:53.031Z,241.88
2018-06-08T05:25:53.092Z,253.13
2018-06-08T05:27:46.100Z,281.25
2018-06-08T05:28:46.162Z,298.13
2018-06-08T05:30:39.161Z,331.88
2018-06-08T05:31:39.228Z,354.38
2018-06-08T05:33:32.232Z,376.88
2018-06-08T05:34:32.296Z,376.88
2018-06-08T05:36:25.290Z,376.88
2018-06-08T05:37:25.360Z,382.50
2018-06-08T05:39:18.368Z,393.75
2018-06-08T05:40:18.423Z,388.13
2018-06-08T05:42:11.427Z,393.75
2018-06-08T05:43:11.493Z,388.13
2018-06-08T05:45:04.496Z,388.13
2018-06-08T05:46:04.559Z,388.13
2018-06-08T05:47:57.568Z,382.50
2018-06-08T05:48:57.629Z,393.75
2018-06-08T05:50:50.631Z,399.38
2018-06-08T05:51:50.697Z,405.00
2018-06-08T05:53:43.724Z,405.00
2018-06-08T05:54:43.769Z,405.00
2018-06-08T05:56:36.762Z,388.13
2018-06-08T05:57:36.830Z,376.88
2018-06-08T05:59:29.834Z,360.00
2018-06-08T06:00:29.895Z,348.75
2018-06-08T06:02:22.894Z,343.13
2018-06-08T06:03:22.961Z,331.88
2018-06-08T06:05:15.972Z,326.25
2018-06-08T06:06:16.032Z,315.00
2018-06-08T06:08:09.036Z,315.00
2018-06-08T06:09:09.095Z,315.00
2018-06-08T06:11:02.604Z,309.38
2018-06-08T06:12:02.671Z,309.38
2018-06-08T06:13:55.676Z,309.38
2018-06-08T06:14:55.746Z,309.38
2018-06-08T06:16:48.734Z,315.00
2018-06-08T06:17:48.801Z,320.63
2018-06-08T06:19:41.812Z,320.63
2018-06-08T06:20:41.873Z,315.00
2018-06-08T06:22:34.877Z,303.75
2018-06-08T06:23:34.947Z,292.50
2018-06-08T06:25:27.955Z,281.25
2018-06-08T06:26:28.017Z,275.63
2018-06-08T06:28:21.022Z,275.63
2018-06-08T06:29:21.095Z,275.63
2018-06-08T06:31:14.081Z,270.00
2018-06-08T06:32:14.151Z,264.38
2018-06-08T06:34:07.154Z,247.50
2018-06-08T06:35:07.216Z,241.88
2018-06-08T06:37:00.219Z,236.25
2018-06-08T06:38:00.286Z,230.63
2018-06-08T06:39:53.291Z,225.00
2018-06-08T06:40:53.353Z,225.00
2018-06-08T06:42:46.355Z,219.38
2018-06-08T06:43:46.420Z,213.75
2018-06-08T06:45:39.424Z,213.75
2018-06-08T06:46:39.492Z,213.75
2018-06-08T06:48:32.494Z,208.13
2018-06-08T06:49:32.554Z,202.50
2018-06-08T06:51:25.555Z,202.50
2018-06-08T06:52:25.621Z,202.50
2018-06-08T06:54:18.624Z,208.13
2018-06-08T06:55:18.686Z,213.75
2018-06-08T06:57:11.684Z,213.75
2018-06-08T06:58:11.752Z,213.75
2018-06-08T07:00:04.768Z,225.00
2018-06-08T07:01:04.828Z,230.63
2018-06-08T07:02:57.825Z,241.88
2018-06-08T07:03:57.892Z,247.50
2018-06-08T07:05:50.896Z,258.75
2018-06-08T07:06:50.957Z,264.38
2018-06-08T07:08:43.965Z,275.63
2018-06-08T07:09:44.026Z,281.25
2018-06-08T07:11:37.542Z,292.50
2018-06-08T07:12:37.608Z,303.75
2018-06-08T07:14:30.628Z,331.88
2018-06-08T07:15:30.688Z,348.75
2018-06-08T07:17:23.691Z,371.25
2018-06-08T07:18:23.755Z,382.50
2018-06-08T07:20:16.757Z,405.00
2018-06-08T07:21:16.818Z,410.63
2018-06-08T07:23:09.815Z,427.50
2018-06-08T07:24:09.886Z,433.13
2018-06-08T07:26:02.896Z,438.75
2018-06-08T07:27:02.954Z,433.13
2018-06-08T07:28:55.968Z,433.13
2018-06-08T07:29:56.033Z,427.50
2018-06-08T07:31:49.221Z,410.63
2018-06-08T07:32:49.109Z,393.75
2018-06-08T07:34:42.115Z,382.50
2018-06-08T07:35:42.180Z,382.50
2018-06-08T07:37:35.180Z,376.88
2018-06-08T07:38:35.248Z,376.88
2018-06-08T07:40:28.256Z,354.38
2018-06-08T07:41:28.312Z,360.00
2018-06-08T07:43:21.311Z,382.50
2018-06-08T07:44:21.379Z,382.50
2018-06-08T07:46:14.385Z,376.88
2018-06-08T07:47:14.446Z,365.63
2018-06-08T07:49:07.451Z,354.38
2018-06-08T07:50:07.516Z,348.75
2018-06-08T07:52:00.516Z,354.38
2018-06-08T07:53:00.579Z,365.63
2018-06-08T07:54:53.585Z,388.13
2018-06-08T07:55:53.653Z,416.25
2018-06-08T07:57:46.669Z,568.13
2018-06-08T07:58:46.735Z,708.75
2018-06-08T08:00:39.742Z,866.25
2018-06-08T08:01:39.805Z,922.50
2018-06-08T08:03:32.802Z,1001.25
2018-06-08T08:04:32.872Z,843.75
2018-06-08T08:06:25.878Z,815.63
2018-06-08T08:07:25.939Z,826.88
2018-06-08T08:09:18.958Z,855.00
2018-06-08T08:10:19.011Z,883.13
2018-06-08T08:12:12.523Z,860.63
2018-06-08T08:13:12.588Z,849.38
2018-06-08T08:15:05.597Z,815.63
2018-06-08T08:16:05.671Z,821.25
2018-06-08T08:17:58.665Z,759.38
2018-06-08T08:18:58.729Z,736.88
2018-06-08T08:20:51.747Z,714.38
2018-06-08T08:21:51.806Z,720.00
2018-06-08T08:23:44.810Z,736.88
2018-06-08T08:24:44.879Z,765.00
2018-06-08T08:26:37.897Z,888.75
2018-06-08T08:27:37.954Z,933.75
2018-06-08T08:29:30.967Z,1130.63
2018-06-08T08:30:31.030Z,1209.38
2018-06-08T08:32:24.029Z,1366.88
2018-06-08T08:33:24.097Z,1276.88
2018-06-08T08:35:17.107Z,1096.88
2018-06-08T08:36:17.172Z,1046.25
2018-06-08T08:38:10.183Z,1023.75
2018-06-08T08:39:10.253Z,928.13
2018-06-08T08:41:03.269Z,838.13
2018-06-08T08:42:03.334Z,798.75
2018-06-08T08:43:56.338Z,742.50
2018-06-08T08:44:56.407Z,731.25
2018-06-08T08:46:49.414Z,759.38
2018-06-08T08:47:49.474Z,787.50
2018-06-08T08:49:42.648Z,894.38
2018-06-08T08:50:42.729Z,995.63
2018-06-08T08:52:35.566Z,1237.50
2018-06-08T08:53:35.623Z,1445.63
2018-06-08T08:55:28.642Z,1597.50
2018-06-08T08:56:28.705Z,2306.25
2018-06-08T08:58:21.713Z,2171.25
2018-06-08T08:59:21.789Z,3431.25
2018-06-08T09:01:14.797Z,2491.88
2018-06-08T09:02:14.863Z,1383.75
2018-06-08T09:04:07.874Z,1091.25
2018-06-08T09:05:07.939Z,1057.50
2018-06-08T09:07:00.954Z,1175.63
2018-06-08T09:08:01.020Z,1175.63
2018-06-08T09:09:54.034Z,1074.38
2018-06-08T09:10:54.098Z,967.50
2018-06-08T09:12:47.110Z,759.38
2018-06-08T09:13:47.180Z,708.75
2018-06-08T09:15:40.194Z,630.00
2018-06-08T09:16:40.258Z,590.63
2018-06-08T09:18:33.264Z,562.50
2018-06-08T09:19:33.332Z,551.25
2018-06-08T09:21:26.347Z,534.38
2018-06-08T09:22:26.410Z,523.13
2018-06-08T09:24:19.418Z,500.63
2018-06-08T09:25:19.489Z,489.38
2018-06-08T09:27:12.495Z,489.38
2018-06-08T09:28:12.562Z,500.63
2018-06-08T09:30:05.579Z,528.75
2018-06-08T09:31:05.636Z,528.75
2018-06-08T09:32:58.645Z,450.00
2018-06-08T09:33:58.710Z,433.13
2018-06-08T09:35:51.718Z,427.50
2018-06-08T09:36:51.780Z,433.13
2018-06-08T09:38:44.785Z,472.50
2018-06-08T09:39:44.852Z,489.38
2018-06-08T09:41:37.877Z,455.63
2018-06-08T09:42:37.930Z,438.75
2018-06-08T09:44:30.954Z,410.63
2018-06-08T09:45:31.007Z,393.75
2018-06-08T09:47:24.020Z,382.50
2018-06-08T09:48:24.083Z,376.88
2018-06-08T09:50:17.108Z,376.88
2018-06-08T09:51:17.155Z,382.50
2018-06-08T09:53:10.160Z,388.13
2018-06-08T09:54:10.227Z,388.13
2018-06-08T09:56:03.236Z,399.38
2018-06-08T09:57:03.301Z,416.25
2018-06-08T09:58:56.308Z,438.75
2018-06-08T09:59:56.375Z,455.63
2018-06-08T10:01:49.394Z,495.00
2018-06-08T10:02:49.447Z,523.13
2018-06-08T10:04:42.452Z,573.75
2018-06-08T10:05:42.519Z,590.63
2018-06-08T10:07:35.529Z,579.38
2018-06-08T10:08:35.586Z,556.88
2018-06-08T10:10:28.594Z,528.75
2018-06-08T10:11:28.658Z,523.13
2018-06-08T10:13:21.662Z,523.13
2018-06-08T10:14:21.726Z,528.75
2018-06-08T10:16:14.736Z,534.38
2018-06-08T10:17:14.798Z,534.38
2018-06-08T10:19:07.803Z,551.25
2018-06-08T10:20:07.870Z,573.75
2018-06-08T10:22:00.951Z,573.75
2018-06-08T10:23:00.944Z,562.50
2018-06-08T10:24:53.945Z,523.13
2018-06-08T10:25:54.014Z,483.75
2018-06-08T10:27:47.019Z,405.00
2018-06-08T10:28:47.083Z,382.50
2018-06-08T10:30:40.093Z,382.50
2018-06-08T10:31:40.152Z,371.25
2018-06-08T10:33:33.161Z,354.38
2018-06-08T10:34:33.223Z,348.75
2018-06-08T10:36:26.228Z,371.25
2018-06-08T10:37:26.289Z,371.25
2018-06-08T10:39:19.294Z,382.50
2018-06-08T10:40:19.360Z,365.63
2018-06-08T10:42:12.373Z,348.75
2018-06-08T10:43:12.433Z,337.50
2018-06-08T10:45:05.435Z,343.13
2018-06-08T10:46:05.498Z,343.13
2018-06-08T10:47:58.511Z,354.38
2018-06-08T10:48:58.570Z,360.00
2018-06-08T10:50:51.575Z,354.38
2018-06-08T10:51:51.643Z,360.00
2018-06-08T10:53:44.654Z,343.13
2018-06-08T10:54:44.712Z,337.50
2018-06-08T10:56:37.741Z,320.63
2018-06-08T10:57:37.782Z,309.38
2018-06-08T10:59:30.780Z,281.25
2018-06-08T11:00:30.848Z,270.00
2018-06-08T11:02:23.856Z,241.88
2018-06-08T11:03:23.915Z,225.00
2018-06-08T11:05:16.923Z,208.13
2018-06-08T11:06:16.992Z,196.88
2018-06-08T11:08:10.000Z,180.00
2018-06-08T11:09:10.094Z,180.00
2018-06-08T11:11:03.072Z,168.75
2018-06-08T11:12:03.134Z,163.13
2018-06-08T11:13:56.145Z,146.25
2018-06-08T11:14:56.211Z,140.63
2018-06-08T11:16:49.235Z,129.38
2018-06-08T11:17:49.278Z,123.75
2018-06-08T11:19:42.326Z,118.13
2018-06-08T11:20:42.365Z,118.13
2018-06-08T11:22:35.382Z,118.13
2018-06-08T11:23:35.433Z,112.50
2018-06-08T11:25:28.434Z,112.50
2018-06-08T11:26:28.523Z,112.50
2018-06-08T11:28:21.504Z,112.50
2018-06-08T11:29:21.581Z,112.50
2018-06-08T11:31:14.560Z,106.88
2018-06-08T11:32:14.630Z,106.88
2018-06-08T11:34:07.634Z,106.88
2018-06-08T11:35:07.698Z,106.88
2018-06-08T11:37:00.696Z,101.25
2018-06-08T11:38:00.761Z,101.25
2018-06-08T11:39:53.772Z,101.25
2018-06-08T11:40:53.833Z,101.25
2018-06-08T11:42:46.835Z,101.25
2018-06-08T11:43:46.904Z,101.25
2018-06-08T11:45:39.910Z,112.50
2018-06-08T11:46:39.977Z,112.50
2018-06-08T11:48:32.966Z,129.38
2018-06-08T11:49:33.037Z,135.00
2018-06-08T11:51:38.657Z,157.50
2018-06-08T11:52:38.721Z,168.75
2018-06-08T11:54:31.729Z,185.63
2018-06-08T11:55:31.789Z,196.88
2018-06-08T11:57:24.793Z,213.75
2018-06-08T11:58:24.869Z,225.00
2018-06-08T12:00:17.880Z,241.88
2018-06-08T12:01:17.928Z,241.88
2018-06-08T12:03:10.924Z,241.88
2018-06-08T12:04:10.990Z,247.50
2018-06-08T12:06:03.993Z,241.88
2018-06-08T12:07:04.053Z,241.88
2018-06-08T12:08:57.093Z,253.13
2018-06-08T12:09:57.127Z,258.75
2018-06-08T12:11:50.120Z,258.75
2018-06-08T12:12:50.182Z,253.13
2018-06-08T12:14:43.186Z,241.88
2018-06-08T12:15:43.248Z,253.13
2018-06-08T12:17:36.319Z,298.13
2018-06-08T12:18:36.318Z,331.88
2018-06-08T12:20:29.324Z,376.88
2018-06-08T12:21:29.377Z,399.38
2018-06-08T12:23:22.374Z,433.13
2018-06-08T12:24:22.440Z,450.00
2018-06-08T12:26:15.470Z,478.13
2018-06-08T12:27:15.510Z,483.75
2018-06-08T12:29:08.516Z,489.38
2018-06-08T12:30:08.580Z,489.38
2018-06-08T12:32:01.593Z,489.38
2018-06-08T12:33:01.653Z,489.38
2018-06-08T12:34:54.675Z,489.38
2018-06-08T12:35:54.719Z,489.38
2018-06-08T12:37:47.723Z,483.75
2018-06-08T12:38:47.789Z,495.00
2018-06-08T12:40:40.808Z,523.13
2018-06-08T12:41:40.873Z,534.38
2018-06-08T12:43:33.868Z,528.75
2018-06-08T12:44:33.932Z,511.88
2018-06-08T12:46:26.942Z,478.13
2018-06-08T12:47:27.001Z,466.88
2018-06-08T12:49:20.005Z,455.63
2018-06-08T12:50:20.070Z,444.38
2018-06-08T12:52:13.588Z,421.88
2018-06-08T12:53:13.643Z,405.00
2018-06-08T12:55:06.647Z,365.63
2018-06-08T12:56:06.714Z,348.75
2018-06-08T12:57:59.718Z,315.00
2018-06-08T12:58:59.778Z,298.13
2018-06-08T13:00:52.787Z,281.25
2018-06-08T13:01:52.848Z,281.25
2018-06-08T13:03:45.855Z,281.25
2018-06-08T13:04:45.923Z,281.25
2018-06-08T13:06:38.933Z,286.88
2018-06-08T13:07:38.987Z,286.88
2018-06-08T13:09:31.995Z,286.88
2018-06-08T13:10:32.055Z,292.50
2018-06-08T13:12:25.060Z,309.38
2018-06-08T13:13:25.121Z,320.63
2018-06-08T13:15:18.123Z,354.38
2018-06-08T13:16:18.193Z,371.25
2018-06-08T13:18:11.228Z,405.00
2018-06-08T13:19:11.266Z,421.88
2018-06-08T13:21:04.271Z,450.00
2018-06-08T13:22:04.331Z,461.25
2018-06-08T13:23:57.404Z,495.00
2018-06-08T13:24:57.403Z,528.75
2018-06-08T13:26:50.401Z,607.50
2018-06-08T13:27:50.463Z,658.13
2018-06-08T13:29:43.476Z,759.38
2018-06-08T13:30:43.532Z,804.38
2018-06-08T13:32:36.537Z,860.63
2018-06-08T13:33:36.603Z,877.50
2018-06-08T13:35:29.614Z,888.75
2018-06-08T13:36:29.685Z,894.38
2018-06-08T13:38:22.691Z,894.38
2018-06-08T13:39:22.753Z,888.75
2018-06-08T13:41:15.757Z,849.38
2018-06-08T13:42:15.829Z,832.50
2018-06-08T13:44:08.836Z,793.13
2018-06-08T13:45:08.900Z,793.13
2018-06-08T13:47:01.902Z,691.88
2018-06-08T13:48:01.973Z,675.00
2018-06-08T13:49:54.980Z,821.25
2018-06-08T13:50:55.044Z,804.38
2018-06-08T13:52:48.043Z,748.13
2018-06-08T13:53:48.113Z,731.25
2018-06-08T13:55:41.169Z,680.63
2018-06-08T13:56:41.181Z,652.50
2018-06-08T13:58:34.192Z,708.75
2018-06-08T13:59:34.249Z,736.88
2018-06-08T14:01:27.250Z,781.88
2018-06-08T14:02:27.317Z,793.13
2018-06-08T14:04:20.328Z,787.50
2018-06-08T14:05:20.396Z,787.50
2018-06-08T14:07:13.393Z,759.38
2018-06-08T14:08:13.462Z,753.75
2018-06-08T14:10:06.467Z,748.13
2018-06-08T14:11:06.529Z,748.13
2018-06-08T14:12:59.529Z,731.25
2018-06-08T14:13:59.598Z,714.38
2018-06-08T14:15:52.638Z,697.50
2018-06-08T14:16:52.668Z,708.75
2018-06-08T14:18:45.678Z,720.00
2018-06-08T14:19:45.740Z,748.13
2018-06-08T14:21:38.745Z,748.13
2018-06-08T14:22:38.807Z,742.50
2018-06-08T14:24:31.818Z,748.13
2018-06-08T14:25:31.881Z,748.13
2018-06-08T14:27:24.882Z,770.63
2018-06-08T14:28:24.950Z,798.75
2018-06-08T14:30:17.963Z,787.50
2018-06-08T14:31:18.018Z,765.00
2018-06-08T14:33:11.026Z,748.13
2018-06-08T14:34:11.090Z,748.13
2018-06-08T14:36:04.102Z,748.13
2018-06-08T14:37:04.164Z,742.50
2018-06-08T14:38:57.180Z,731.25
2018-06-08T14:39:57.240Z,720.00
2018-06-08T14:41:50.243Z,697.50
2018-06-08T14:42:50.311Z,686.25
2018-06-08T14:44:43.320Z,669.38
2018-06-08T14:45:43.380Z,669.38
2018-06-08T14:47:36.448Z,646.88
2018-06-08T14:48:36.458Z,635.63
2018-06-08T14:50:29.469Z,635.63
2018-06-08T14:51:29.535Z,641.25
2018-06-08T14:53:22.537Z,646.88
2018-06-08T14:54:22.605Z,652.50
2018-06-08T14:56:15.614Z,658.13
2018-06-08T14:57:15.671Z,658.13
2018-06-08T14:59:08.682Z,646.88
2018-06-08T15:00:08.747Z,641.25
2018-06-08T15:02:01.780Z,618.75
2018-06-08T15:03:01.826Z,613.13
2018-06-08T15:04:54.834Z,630.00
2018-06-08T15:05:54.897Z,618.75
2018-06-08T15:07:47.912Z,630.00
2018-06-08T15:08:47.984Z,624.38
2018-06-08T15:10:41.491Z,585.00
2018-06-08T15:11:41.552Z,590.63
2018-06-08T15:13:34.552Z,585.00
2018-06-08T15:14:34.624Z,590.63
2018-06-08T15:16:27.634Z,585.00
2018-06-08T15:17:27.692Z,590.63
2018-06-08T15:19:20.698Z,585.00
2018-06-08T15:20:20.764Z,590.63
2018-06-08T15:22:13.780Z,618.75
2018-06-08T15:23:13.839Z,613.13
2018-06-08T15:25:06.849Z,590.63
2018-06-08T15:26:06.913Z,579.38
2018-06-08T15:27:59.917Z,556.88
2018-06-08T15:28:59.982Z,545.63
2018-06-08T15:30:52.992Z,511.88
2018-06-08T15:31:53.057Z,489.38
2018-06-08T15:33:46.053Z,444.38
2018-06-08T15:34:46.127Z,421.88
2018-06-08T15:36:39.134Z,382.50
2018-06-08T15:37:39.196Z,371.25
2018-06-08T15:39:32.199Z,348.75
2018-06-08T15:40:32.323Z,348.75
2018-06-08T15:42:25.281Z,348.75
2018-06-08T15:43:25.344Z,348.75
2018-06-08T15:45:18.350Z,343.13
2018-06-08T15:46:18.417Z,343.13
2018-06-08T15:48:11.451Z,360.00
2018-06-08T15:49:11.488Z,343.13
2018-06-08T15:51:04.497Z,354.38
2018-06-08T15:52:04.557Z,331.88
2018-06-08T15:53:57.563Z,326.25
2018-06-08T15:54:57.630Z,331.88
2018-06-08T15:56:50.643Z,320.63
2018-06-08T15:57:50.697Z,315.00
2018-06-08T15:59:43.714Z,303.75
2018-06-08T16:00:43.783Z,309.38
2018-06-08T16:02:36.799Z,315.00
2018-06-08T16:03:36.857Z,320.63
2018-06-08T16:05:29.857Z,320.63
2018-06-08T16:06:29.925Z,320.63
2018-06-08T16:08:22.934Z,298.13
2018-06-08T16:09:22.994Z,292.50
2018-06-08T16:11:15.996Z,286.88
2018-06-08T16:12:16.064Z,292.50
2018-06-08T16:14:09.070Z,309.38
2018-06-08T16:15:09.139Z,320.63
2018-06-08T16:17:02.148Z,337.50
2018-06-08T16:18:02.201Z,343.13
2018-06-08T16:19:55.205Z,348.75
2018-06-08T16:20:55.272Z,348.75
2018-06-08T16:22:48.289Z,331.88
2018-06-08T16:23:48.343Z,331.88
2018-06-08T16:25:41.345Z,320.63
2018-06-08T16:26:41.414Z,315.00
2018-06-08T16:28:34.421Z,298.13
2018-06-08T16:29:34.482Z,292.50
2018-06-08T16:31:27.481Z,281.25
2018-06-08T16:32:27.551Z,275.63
2018-06-08T16:34:20.557Z,270.00
2018-06-08T16:35:20.629Z,264.38
2018-06-08T16:37:13.620Z,258.75
2018-06-08T16:38:13.690Z,247.50
2018-06-08T16:40:06.699Z,258.75
2018-06-08T16:41:06.756Z,258.75
2018-06-08T16:42:59.785Z,258.75
2018-06-08T16:43:59.831Z,258.75
2018-06-08T16:45:52.836Z,253.13
2018-06-08T16:46:52.899Z,253.13
2018-06-08T16:48:45.906Z,247.50
2018-06-08T16:49:45.984Z,247.50
2018-06-08T16:51:38.973Z,253.13
2018-06-08T16:52:39.040Z,253.13
2018-06-08T16:54:32.047Z,253.13
2018-06-08T16:55:32.106Z,253.13
2018-06-08T16:57:25.107Z,247.50
2018-06-08T16:58:25.175Z,247.50
2018-06-08T17:00:18.694Z,241.88
2018-06-08T17:01:18.750Z,241.88
2018-06-08T17:03:11.764Z,241.88
2018-06-08T17:04:11.826Z,236.25
2018-06-08T17:06:04.837Z,236.25
2018-06-08T17:07:04.892Z,236.25
2018-06-08T17:08:57.905Z,236.25
2018-06-08T17:09:57.969Z,236.25
2018-06-08T17:11:50.967Z,236.25
2018-06-08T17:12:51.037Z,236.25
2018-06-08T17:14:44.048Z,236.25
2018-06-08T17:15:44.105Z,236.25
2018-06-08T17:17:37.104Z,236.25
2018-06-08T17:18:37.173Z,241.88
2018-06-08T17:20:30.180Z,241.88
2018-06-08T17:21:30.273Z,247.50
2018-06-08T17:23:23.236Z,253.13
2018-06-08T17:24:23.309Z,253.13
2018-06-08T17:26:16.317Z,253.13
2018-06-08T17:27:16.375Z,258.75
2018-06-08T17:29:09.383Z,258.75
2018-06-08T17:30:09.442Z,258.75
2018-06-08T17:32:02.455Z,258.75
2018-06-08T17:33:02.518Z,247.50
2018-06-08T17:34:55.522Z,230.63
2018-06-08T17:35:55.584Z,225.00
2018-06-08T17:37:48.586Z,213.75
2018-06-08T17:38:48.656Z,213.75
2018-06-08T17:40:41.675Z,213.75
2018-06-08T17:41:41.736Z,213.75
2018-06-08T17:43:34.751Z,230.63
2018-06-08T17:44:34.818Z,236.25
2018-06-08T17:46:28.332Z,241.88
2018-06-08T17:47:28.392Z,241.88
2018-06-08T17:49:21.392Z,230.63
2018-06-08T17:50:21.457Z,225.00
2018-06-08T17:52:14.468Z,230.63
2018-06-08T17:53:14.527Z,225.00
2018-06-08T17:55:07.539Z,213.75
2018-06-08T17:56:07.598Z,208.13
2018-06-08T17:58:00.602Z,202.50
2018-06-08T17:59:00.670Z,208.13
2018-06-08T18:00:53.685Z,202.50
2018-06-08T18:01:53.739Z,196.88
2018-06-08T18:03:46.737Z,191.25
2018-06-08T18:04:46.804Z,180.00
2018-06-08T18:06:39.813Z,180.00
2018-06-08T18:07:39.875Z,180.00
2018-06-08T18:09:32.910Z,174.38
2018-06-08T18:10:32.942Z,174.38
2018-06-08T18:12:25.952Z,168.75
2018-06-08T18:13:26.009Z,168.75
2018-06-08T18:15:19.006Z,163.13